Time;durP1;ratioP1;P1;durP2;ratioP2;P2;SDS_P1;SDS_P2;PMS_P1;PMS_P2;Temp;Humidity;BMP_temperature;BMP_pressure;BME280_temperature;BME280_humidity;BME280_pressure;Samples;Min_cycle;Max_cycle;Signal;HPM_P1;HPM_P2
2022/12/31 00:01:46;;;;;;;24.65;2.78;;;;;;;;;;5093250;28;20418;-81
2022/12/31 00:04:11;;;;;;;13.45;3.28;;;;;;;;;;5092311;28;20138;-77
2022/12/31 00:06:36;;;;;;;16.42;3.20;;;;;;;;;;5093471;28;20075;-77
2022/12/31 00:09:04;;;;;;;11.68;2.30;;;;;;;;;;5092895;28;20020;-81
2022/12/31 00:11:30;;;;;;;17.05;3.10;;;;;;;;;;5093213;28;20094;-77
2022/12/31 00:13:56;;;;;;;20.40;3.28;;;;;;;;;;5092831;28;20523;-78
2022/12/31 00:16:24;;;;;;;4.63;1.60;;;;;;;;;;5093298;28;20024;-79
2022/12/31 00:18:51;;;;;;;12.45;2.17;;;;;;;;;;5093375;28;20027;-78
2022/12/31 00:21:17;;;;;;;7.35;2.38;;;;;;;;;;5092953;28;20016;-77
2022/12/31 00:23:43;;;;;;;8.55;1.75;;;;;;;;;;5091592;28;20138;-78
2022/12/31 00:26:16;;;;;;;14.65;2.80;;;;;;;;;;5093248;28;20098;-78
2022/12/31 00:28:41;;;;;;;14.63;3.35;;;;;;;;;;5093196;28;20024;-79
2022/12/31 00:31:07;;;;;;;6.25;2.30;;;;;;;;;;5091812;28;20034;-76
2022/12/31 00:33:32;;;;;;;14.18;3.33;;;;;;;;;;5092452;28;20039;-76
2022/12/31 00:36:24;;;;;;;7.32;1.77;;;;;;;;;;5092955;28;20031;-80
2022/12/31 00:38:52;;;;;;;6.70;2.28;;;;;;;;;;5087240;28;20028;-81
2022/12/31 00:41:18;;;;;;;10.25;1.95;;;;;;;;;;5092682;28;20028;-80
2022/12/31 00:43:44;;;;;;;18.25;4.60;;;;;;;;;;5092619;28;20028;-79
2022/12/31 00:46:10;;;;;;;14.15;3.55;;;;;;;;;;5093466;28;20027;-78
2022/12/31 00:48:35;;;;;;;6.82;2.15;;;;;;;;;;5091292;28;20016;-79
2022/12/31 00:51:02;;;;;;;12.85;3.13;;;;;;;;;;5092567;28;20020;-78
2022/12/31 00:53:28;;;;;;;7.28;1.50;;;;;;;;;;5092650;28;20028;-81
2022/12/31 00:56:03;;;;;;;9.57;2.83;;;;;;;;;;5093112;28;20028;-78
2022/12/31 00:58:29;;;;;;;15.55;3.45;;;;;;;;;;5092915;28;20017;-80
2022/12/31 01:00:55;;;;;;;13.80;3.35;;;;;;;;;;5094589;28;20080;-80
2022/12/31 01:03:20;;;;;;;18.27;3.45;;;;;;;;;;5096456;28;20095;-77
2022/12/31 01:05:45;;;;;;;12.75;2.55;;;;;;;;;;5096817;28;20449;-76
2022/12/31 01:08:11;;;;;;;14.05;2.78;;;;;;;;;;5097177;28;20442;-79
2022/12/31 01:13:20;;;;;;;15.25;3.90;;;;;;;;;;5097970;28;20113;-79
2022/12/31 01:15:46;;;;;;;10.98;2.53;;;;;;;;;;5097133;28;20016;-79
2022/12/31 01:18:12;;;;;;;10.88;2.75;;;;;;;;;;5096533;28;20012;-79
2022/12/31 01:20:39;;;;;;;22.58;4.57;;;;;;;;;;5095326;28;20024;-78
2022/12/31 01:23:05;;;;;;;5.57;2.65;;;;;;;;;;5096372;28;20074;-76
2022/12/31 01:25:33;;;;;;;11.07;2.38;;;;;;;;;;5096790;28;20054;-76
2022/12/31 01:27:59;;;;;;;7.40;1.95;;;;;;;;;;5097408;28;20028;-77
2022/12/31 01:30:24;;;;;;;15.52;4.00;;;;;;;;;;5094635;28;20016;-77
2022/12/31 01:32:49;;;;;;;13.05;3.53;;;;;;;;;;5095909;28;20396;-77
2022/12/31 01:35:15;;;;;;;13.65;3.42;;;;;;;;;;5094308;28;20491;-75
2022/12/31 01:37:40;;;;;;;12.75;3.28;;;;;;;;;;5096280;28;20012;-78
2022/12/31 01:40:06;;;;;;;9.98;2.78;;;;;;;;;;5094626;28;20024;-80
2022/12/31 01:42:31;;;;;;;9.45;2.90;;;;;;;;;;5096164;28;20046;-77
2022/12/31 01:44:57;;;;;;;14.23;3.92;;;;;;;;;;5094317;28;20111;-81
2022/12/31 01:47:34;;;;;;;12.40;3.10;;;;;;;;;;5095819;28;20178;-77
2022/12/31 01:50:09;;;;;;;11.20;2.58;;;;;;;;;;5094305;28;20028;-75
2022/12/31 01:52:37;;;;;;;16.92;3.20;;;;;;;;;;5095202;28;20080;-80
2022/12/31 01:55:07;;;;;;;6.70;1.58;;;;;;;;;;5095036;28;20076;-74
2022/12/31 01:57:34;;;;;;;17.52;3.83;;;;;;;;;;5095659;28;20406;-78
2022/12/31 02:00:00;;;;;;;9.68;1.85;;;;;;;;;;5095587;28;20024;-77
2022/12/31 02:02:26;;;;;;;12.40;3.15;;;;;;;;;;5095576;28;20023;-77
2022/12/31 02:04:54;;;;;;;21.10;5.65;;;;;;;;;;5094241;28;20044;-79
2022/12/31 02:07:20;;;;;;;4.85;2.17;;;;;;;;;;5095431;28;20023;-80
2022/12/31 02:09:45;;;;;;;7.82;1.98;;;;;;;;;;5095528;28;20024;-77
2022/12/31 02:12:11;;;;;;;10.65;2.35;;;;;;;;;;5093776;28;20036;-76
2022/12/31 02:14:38;;;;;;;9.65;2.47;;;;;;;;;;5095222;28;20012;-78
2022/12/31 02:17:09;;;;;;;9.75;2.72;;;;;;;;;;5095142;28;20023;-80
2022/12/31 02:19:35;;;;;;;8.55;1.65;;;;;;;;;;5095075;28;20429;-78
2022/12/31 02:22:00;;;;;;;10.00;2.05;;;;;;;;;;5094932;28;20059;-78
2022/12/31 02:24:31;;;;;;;11.50;4.28;;;;;;;;;;5094872;28;20027;-78
2022/12/31 02:27:02;;;;;;;8.27;2.33;;;;;;;;;;5095260;28;20055;-76
2022/12/31 02:29:46;;;;;;;8.50;2.42;;;;;;;;;;5094999;28;20024;-77
2022/12/31 02:32:19;;;;;;;10.65;2.90;;;;;;;;;;5094863;28;20472;-80
2022/12/31 02:34:52;;;;;;;16.67;3.83;;;;;;;;;;5095083;28;20020;-79
2022/12/31 02:37:19;;;;;;;12.40;2.63;;;;;;;;;;5093742;28;20016;-78
2022/12/31 02:39:45;;;;;;;7.78;2.03;;;;;;;;;;5094010;28;20051;-79
2022/12/31 02:42:11;;;;;;;14.52;2.33;;;;;;;;;;5094575;28;20047;-70
2022/12/31 02:44:37;;;;;;;12.05;2.55;;;;;;;;;;5094258;28;20535;-74
2022/12/31 02:47:08;;;;;;;13.38;3.30;;;;;;;;;;5094486;28;20024;-76
2022/12/31 02:49:46;;;;;;;23.80;4.38;;;;;;;;;;5094277;28;20051;-72
2022/12/31 02:52:30;;;;;;;15.38;3.05;;;;;;;;;;5093963;28;20534;-74
2022/12/31 02:54:55;;;;;;;7.15;2.53;;;;;;;;;;5092931;28;20547;-71
2022/12/31 02:57:33;;;;;;;23.85;4.65;;;;;;;;;;5092724;28;20055;-72
2022/12/31 03:02:50;;;;;;;11.13;2.63;;;;;;;;;;5094308;28;20039;-70
2022/12/31 03:05:18;;;;;;;10.02;3.10;;;;;;;;;;5094236;28;20446;-68
2022/12/31 03:07:44;;;;;;;11.48;3.88;;;;;;;;;;5093074;28;20024;-64
2022/12/31 03:10:10;;;;;;;8.80;2.25;;;;;;;;;;5092493;28;20020;-64
2022/12/31 03:12:48;;;;;;;2.97;1.10;;;;;;;;;;5093490;28;20031;-65
2022/12/31 03:15:19;;;;;;;7.63;1.42;;;;;;;;;;5093331;28;20020;-66
2022/12/31 03:17:55;;;;;;;2.20;1.48;;;;;;;;;;5095114;28;20059;-64
2022/12/31 03:23:07;;;;;;;4.53;1.08;;;;;;;;;;5092619;28;20107;-61
2022/12/31 03:25:39;;;;;;;14.13;2.55;;;;;;;;;;5093728;28;20044;-62
2022/12/31 03:28:08;;;;;;;7.05;2.05;;;;;;;;;;5092552;28;20552;-60
2022/12/31 03:30:35;;;;;;;5.15;1.25;;;;;;;;;;5092280;28;20024;-61
2022/12/31 03:33:01;;;;;;;1.05;0.73;;;;;;;;;;5093031;28;20427;-61
2022/12/31 03:35:28;;;;;;;11.38;3.00;;;;;;;;;;5093207;28;20016;-60
2022/12/31 03:37:54;;;;;;;11.80;1.60;;;;;;;;;;5093515;28;20384;-61
2022/12/31 03:40:22;;;;;;;7.90;2.50;;;;;;;;;;5093112;28;20016;-61
2022/12/31 03:42:48;;;;;;;8.23;2.50;;;;;;;;;;5092037;28;20020;-60
2022/12/31 03:45:13;;;;;;;11.77;3.00;;;;;;;;;;5093024;28;20507;-60
2022/12/31 03:47:39;;;;;;;7.50;2.42;;;;;;;;;;5091747;28;20023;-60
2022/12/31 03:50:05;;;;;;;9.70;3.15;;;;;;;;;;5093079;28;20012;-61
2022/12/31 03:52:30;;;;;;;7.05;1.70;;;;;;;;;;5091520;28;20115;-63
2022/12/31 03:54:56;;;;;;;6.15;2.15;;;;;;;;;;5092549;28;20103;-60
2022/12/31 03:57:22;;;;;;;10.00;2.25;;;;;;;;;;5092831;28;20065;-58
2022/12/31 03:59:47;;;;;;;7.43;2.20;;;;;;;;;;5091662;28;20016;-60
2022/12/31 04:02:13;;;;;;;9.23;1.90;;;;;;;;;;5092809;28;20028;-58
2022/12/31 04:04:38;;;;;;;9.60;2.30;;;;;;;;;;5091169;28;20051;-59
2022/12/31 04:07:03;;;;;;;9.23;2.55;;;;;;;;;;5092745;28;20383;-60
2022/12/31 04:09:29;;;;;;;3.97;1.48;;;;;;;;;;5092863;28;20047;-59
2022/12/31 04:11:54;;;;;;;3.70;1.25;;;;;;;;;;5092985;28;20020;-59
2022/12/31 04:14:20;;;;;;;13.20;2.88;;;;;;;;;;5092789;28;20046;-58
2022/12/31 04:16:45;;;;;;;5.18;1.58;;;;;;;;;;5093139;28;20020;-58
2022/12/31 04:19:11;;;;;;;16.35;2.70;;;;;;;;;;5091066;28;20052;-59
2022/12/31 04:21:38;;;;;;;10.18;2.65;;;;;;;;;;5092640;28;20069;-59
2022/12/31 04:24:04;;;;;;;8.88;3.83;;;;;;;;;;5092493;28;20051;-59
2022/12/31 04:26:29;;;;;;;10.00;2.53;;;;;;;;;;5092793;28;20060;-60
2022/12/31 04:28:55;;;;;;;13.75;2.83;;;;;;;;;;5092538;28;20411;-61
2022/12/31 04:31:20;;;;;;;16.20;3.92;;;;;;;;;;5092111;28;20023;-61
2022/12/31 04:33:46;;;;;;;13.70;2.63;;;;;;;;;;5092221;28;20038;-60
2022/12/31 04:36:11;;;;;;;11.43;3.08;;;;;;;;;;5092273;28;20020;-59
2022/12/31 04:38:37;;;;;;;7.35;2.80;;;;;;;;;;5092706;28;20373;-59
2022/12/31 04:41:18;;;;;;;7.88;2.70;;;;;;;;;;5091923;28;20051;-59
2022/12/31 04:43:45;;;;;;;13.20;3.20;;;;;;;;;;5092272;28;20065;-59
2022/12/31 04:46:10;;;;;;;8.65;3.08;;;;;;;;;;5090876;28;20020;-60
2022/12/31 04:48:36;;;;;;;11.70;3.17;;;;;;;;;;5090881;28;20020;-60
2022/12/31 04:51:01;;;;;;;12.35;3.00;;;;;;;;;;5092001;28;20023;-60
2022/12/31 04:53:28;;;;;;;15.05;4.07;;;;;;;;;;5092414;28;20028;-60
2022/12/31 04:55:53;;;;;;;10.60;3.03;;;;;;;;;;5092297;28;20043;-59
2022/12/31 04:58:19;;;;;;;7.70;2.80;;;;;;;;;;5092049;28;20488;-58
2022/12/31 05:00:45;;;;;;;15.85;4.20;;;;;;;;;;5092342;28;20377;-59
2022/12/31 05:03:13;;;;;;;11.25;3.67;;;;;;;;;;5092207;28;20024;-59
2022/12/31 05:05:38;;;;;;;12.45;3.78;;;;;;;;;;5090436;28;20382;-60
2022/12/31 05:08:04;;;;;;;16.55;3.35;;;;;;;;;;5090928;28;20088;-60
2022/12/31 05:10:29;;;;;;;12.35;2.38;;;;;;;;;;5091894;28;20024;-60
2022/12/31 05:12:55;;;;;;;7.97;1.70;;;;;;;;;;5091943;28;20028;-63
2022/12/31 05:15:20;;;;;;;15.43;2.72;;;;;;;;;;5091653;28;20107;-59
2022/12/31 05:17:45;;;;;;;9.55;2.30;;;;;;;;;;5091849;28;20016;-60
2022/12/31 05:20:11;;;;;;;9.38;2.40;;;;;;;;;;5091693;28;20061;-60
2022/12/31 05:22:37;;;;;;;8.55;2.08;;;;;;;;;;5092373;28;20020;-60
2022/12/31 05:25:03;;;;;;;8.10;2.35;;;;;;;;;;5091914;28;20061;-60
2022/12/31 05:27:31;;;;;;;9.93;2.30;;;;;;;;;;5092045;28;20015;-60
2022/12/31 05:29:57;;;;;;;10.75;2.85;;;;;;;;;;5092056;28;20016;-60
2022/12/31 05:32:22;;;;;;;6.82;2.20;;;;;;;;;;5091720;28;20059;-59
2022/12/31 05:34:48;;;;;;;8.93;2.22;;;;;;;;;;5091502;28;20020;-59
2022/12/31 05:37:13;;;;;;;9.18;2.28;;;;;;;;;;5090328;28;20027;-60
2022/12/31 05:39:39;;;;;;;7.10;2.05;;;;;;;;;;5090364;28;20023;-60
2022/12/31 05:42:04;;;;;;;9.90;2.40;;;;;;;;;;5091662;28;20019;-59
2022/12/31 05:44:29;;;;;;;8.90;2.08;;;;;;;;;;5091714;28;20522;-60
2022/12/31 05:46:55;;;;;;;7.10;1.73;;;;;;;;;;5093072;28;20434;-60
2022/12/31 05:49:20;;;;;;;8.27;2.20;;;;;;;;;;5095007;28;20044;-60
2022/12/31 05:51:46;;;;;;;10.63;2.33;;;;;;;;;;5095493;28;20040;-59
2022/12/31 05:54:11;;;;;;;5.90;1.95;;;;;;;;;;5095387;28;20067;-60
2022/12/31 05:56:36;;;;;;;10.10;1.92;;;;;;;;;;5094957;28;20123;-60
2022/12/31 05:59:02;;;;;;;7.65;1.95;;;;;;;;;;5094858;28;20435;-60
2022/12/31 06:01:27;;;;;;;6.85;1.63;;;;;;;;;;5095460;28;20009;-60
2022/12/31 06:03:53;;;;;;;9.10;1.90;;;;;;;;;;5093430;28;20420;-60
2022/12/31 06:06:18;;;;;;;9.25;1.98;;;;;;;;;;5093489;28;20012;-60
2022/12/31 06:08:49;;;;;;;8.68;2.15;;;;;;;;;;5094814;28;20068;-59
2022/12/31 06:11:14;;;;;;;9.32;2.40;;;;;;;;;;5094610;28;20036;-60
2022/12/31 06:13:40;;;;;;;8.48;2.13;;;;;;;;;;5093548;28;20032;-59
2022/12/31 06:16:07;;;;;;;5.85;2.33;;;;;;;;;;5094861;28;20107;-60
2022/12/31 06:18:33;;;;;;;9.60;1.58;;;;;;;;;;5094472;28;20020;-59
2022/12/31 06:20:58;;;;;;;3.90;1.38;;;;;;;;;;5093211;28;20426;-61
2022/12/31 06:23:24;;;;;;;7.25;1.58;;;;;;;;;;5094844;28;20099;-59
2022/12/31 06:25:49;;;;;;;8.30;1.52;;;;;;;;;;5094968;28;20107;-60
2022/12/31 06:28:16;;;;;;;7.28;1.77;;;;;;;;;;5094576;28;20027;-60
2022/12/31 06:30:41;;;;;;;4.15;0.80;;;;;;;;;;5094943;28;20051;-59
2022/12/31 06:33:07;;;;;;;5.07;1.30;;;;;;;;;;5094184;28;20473;-59
2022/12/31 06:35:33;;;;;;;8.23;1.67;;;;;;;;;;5094478;28;20020;-59
2022/12/31 06:37:58;;;;;;;6.22;1.40;;;;;;;;;;5094998;28;20020;-59
2022/12/31 06:40:24;;;;;;;6.25;1.88;;;;;;;;;;5094420;28;20020;-61
2022/12/31 06:42:49;;;;;;;5.88;1.83;;;;;;;;;;5093216;28;20388;-59
2022/12/31 06:45:15;;;;;;;7.18;1.60;;;;;;;;;;5094117;28;20457;-60
2022/12/31 06:47:40;;;;;;;3.25;1.02;;;;;;;;;;5092743;28;20020;-59
2022/12/31 06:50:06;;;;;;;7.68;1.25;;;;;;;;;;5094299;28;20020;-60
2022/12/31 06:52:32;;;;;;;6.72;1.80;;;;;;;;;;5094215;28;20098;-60
2022/12/31 06:54:57;;;;;;;3.45;1.58;;;;;;;;;;5092793;28;20428;-60
2022/12/31 06:57:23;;;;;;;7.70;1.60;;;;;;;;;;5092708;28;20030;-60
2022/12/31 06:59:48;;;;;;;6.15;1.45;;;;;;;;;;5093007;28;20016;-61
2022/12/31 07:02:20;;;;;;;3.50;1.35;;;;;;;;;;5093856;28;20023;-60
2022/12/31 07:04:48;;;;;;;5.00;1.17;;;;;;;;;;5094057;28;20048;-60
2022/12/31 07:07:32;;;;;;;6.75;1.65;;;;;;;;;;5093571;28;20552;-60
2022/12/31 07:09:58;;;;;;;8.05;1.30;;;;;;;;;;5093844;28;20099;-60
2022/12/31 07:12:30;;;;;;;7.13;1.33;;;;;;;;;;5093784;28;20107;-62
2022/12/31 07:15:03;;;;;;;7.25;1.40;;;;;;;;;;5093434;28;20024;-61
2022/12/31 07:17:46;;;;;;;5.15;1.05;;;;;;;;;;5093521;28;20024;-61
2022/12/31 07:20:14;;;;;;;7.30;1.67;;;;;;;;;;5093518;28;20031;-60
2022/12/31 07:22:40;;;;;;;6.68;1.75;;;;;;;;;;5093511;28;20087;-60
2022/12/31 07:25:05;;;;;;;7.20;1.25;;;;;;;;;;5092863;28;20099;-60
2022/12/31 07:27:37;;;;;;;5.30;1.27;;;;;;;;;;5093467;28;20027;-61
2022/12/31 07:30:09;;;;;;;4.40;1.15;;;;;;;;;;5093405;28;20106;-60
2022/12/31 07:32:59;;;;;;;5.68;1.23;;;;;;;;;;5093291;28;20039;-60
2022/12/31 07:35:40;;;;;;;6.68;1.85;;;;;;;;;;5093005;28;20084;-60
2022/12/31 07:38:24;;;;;;;5.45;1.00;;;;;;;;;;5093288;28;20016;-60
2022/12/31 07:40:52;;;;;;;9.43;1.40;;;;;;;;;;5093221;28;20024;-60
2022/12/31 07:43:38;;;;;;;8.20;1.17;;;;;;;;;;5092748;28;20023;-61
2022/12/31 07:46:22;;;;;;;7.32;2.15;;;;;;;;;;5092596;28;20024;-61
2022/12/31 07:48:47;;;;;;;11.85;1.50;;;;;;;;;;5095476;28;20043;-61
2022/12/31 07:51:13;;;;;;;8.43;1.20;;;;;;;;;;5093437;28;20016;-61
2022/12/31 07:53:40;;;;;;;7.47;0.77;;;;;;;;;;5091621;28;20031;-61
2022/12/31 07:56:07;;;;;;;8.88;1.17;;;;;;;;;;5092855;28;20031;-62
2022/12/31 07:58:44;;;;;;;4.95;1.13;;;;;;;;;;5093016;28;20023;-60
2022/12/31 08:01:15;;;;;;;7.35;1.27;;;;;;;;;;5092539;28;20024;-59
2022/12/31 08:03:46;;;;;;;7.80;1.35;;;;;;;;;;5092806;28;20020;-60
2022/12/31 08:06:27;;;;;;;10.20;1.73;;;;;;;;;;5093208;28;20020;-63
2022/12/31 08:09:15;;;;;;;9.18;1.33;;;;;;;;;;5093503;28;20016;-61
2022/12/31 08:11:54;;;;;;;8.23;2.03;;;;;;;;;;5085282;28;20055;-62
2022/12/31 08:14:19;;;;;;;5.28;1.08;;;;;;;;;;5092914;28;20059;-61
2022/12/31 08:16:45;;;;;;;6.75;1.95;;;;;;;;;;5092395;28;20048;-63
2022/12/31 08:19:31;;;;;;;10.00;2.90;;;;;;;;;;5090883;28;20020;-60
2022/12/31 08:22:08;;;;;;;6.15;1.30;;;;;;;;;;5090531;28;20192;-60
2022/12/31 08:24:53;;;;;;;11.45;1.58;;;;;;;;;;5092545;28;20389;-61
2022/12/31 08:27:24;;;;;;;9.85;1.58;;;;;;;;;;5092638;28;20097;-60
2022/12/31 08:29:49;;;;;;;8.13;1.52;;;;;;;;;;5092470;28;20059;-60
2022/12/31 08:32:25;;;;;;;7.57;0.90;;;;;;;;;;5092239;28;20099;-62
2022/12/31 08:34:50;;;;;;;6.15;0.80;;;;;;;;;;5092477;28;20016;-59
2022/12/31 08:37:21;;;;;;;6.57;1.13;;;;;;;;;;5092121;28;20194;-60
2022/12/31 08:39:55;;;;;;;10.57;1.77;;;;;;;;;;5092540;28;20024;-61
2022/12/31 08:42:35;;;;;;;11.93;1.60;;;;;;;;;;5092039;28;20051;-61
2022/12/31 08:45:01;;;;;;;12.55;1.25;;;;;;;;;;5092192;28;20138;-62
2022/12/31 08:47:41;;;;;;;12.23;1.73;;;;;;;;;;5092167;28;20076;-61
2022/12/31 08:50:12;;;;;;;11.80;1.52;;;;;;;;;;5092010;28;20429;-61
2022/12/31 08:52:37;;;;;;;5.75;0.80;;;;;;;;;;5091870;28;20032;-61
2022/12/31 08:55:03;;;;;;;6.95;1.20;;;;;;;;;;5090758;28;20025;-62
2022/12/31 08:57:33;;;;;;;11.18;1.58;;;;;;;;;;5092263;28;20493;-60
2022/12/31 08:59:59;;;;;;;13.98;1.98;;;;;;;;;;5092190;28;20399;-61
2022/12/31 09:02:24;;;;;;;7.85;2.15;;;;;;;;;;5090610;28;20031;-60
2022/12/31 09:05:03;;;;;;;11.00;1.88;;;;;;;;;;5090650;28;20044;-59
2022/12/31 09:07:36;;;;;;;10.52;1.10;;;;;;;;;;5091992;28;20350;-62
2022/12/31 09:10:07;;;;;;;5.85;1.25;;;;;;;;;;5092105;28;20031;-61
2022/12/31 09:12:40;;;;;;;8.57;1.27;;;;;;;;;;5091991;28;20046;-60
2022/12/31 09:15:20;;;;;;;11.95;1.55;;;;;;;;;;5090323;28;20111;-60
2022/12/31 09:17:46;;;;;;;7.32;1.20;;;;;;;;;;5091726;28;20024;-60
2022/12/31 09:20:21;;;;;;;14.63;1.40;;;;;;;;;;5091733;28;20104;-59
2022/12/31 09:22:47;;;;;;;6.13;1.23;;;;;;;;;;5093264;28;20434;-60
2022/12/31 09:25:16;;;;;;;10.30;1.40;;;;;;;;;;5095407;28;20028;-59
2022/12/31 09:27:49;;;;;;;8.32;1.50;;;;;;;;;;5093970;28;20024;-60
2022/12/31 09:30:16;;;;;;;7.00;1.13;;;;;;;;;;5095313;28;20371;-60
2022/12/31 09:32:56;;;;;;;10.27;1.77;;;;;;;;;;5095192;28;20028;-60
2022/12/31 09:35:54;;;;;;;13.88;2.55;;;;;;;;;;5094141;28;20020;-60
2022/12/31 09:38:22;;;;;;;10.73;1.35;;;;;;;;;;5061310;28;20123;-61
2022/12/31 09:41:03;;;;;;;9.45;1.73;;;;;;;;;;5094142;28;20052;-61
2022/12/31 09:43:28;;;;;;;11.90;1.33;;;;;;;;;;5095309;28;20038;-61
2022/12/31 09:46:12;;;;;;;16.15;1.70;;;;;;;;;;5095282;28;20020;-60
2022/12/31 09:49:01;;;;;;;16.30;2.53;;;;;;;;;;5095048;28;20027;-60
2022/12/31 09:51:30;;;;;;;14.25;1.98;;;;;;;;;;5065790;28;20024;-61
2022/12/31 09:54:14;;;;;;;11.32;2.63;;;;;;;;;;5094901;28;20141;-59
2022/12/31 09:57:00;;;;;;;13.70;1.65;;;;;;;;;;5093944;28;20494;-61
2022/12/31 09:59:34;;;;;;;13.60;1.92;;;;;;;;;;5063270;28;20032;-61
2022/12/31 10:02:23;;;;;;;10.98;1.65;;;;;;;;;;5095283;28;20024;-61
2022/12/31 10:04:59;;;;;;;15.50;2.38;;;;;;;;;;5055325;28;20050;-61
2022/12/31 10:07:34;;;;;;;9.77;1.50;;;;;;;;;;5094923;28;20028;-62
2022/12/31 10:10:15;;;;;;;16.70;3.08;;;;;;;;;;5093037;28;20417;-62
2022/12/31 10:12:59;;;;;;;12.40;2.20;;;;;;;;;;5093724;28;20046;-63
2022/12/31 10:15:28;;;;;;;7.57;2.38;;;;;;;;;;5093461;28;20016;-62
2022/12/31 10:18:01;;;;;;;8.30;1.83;;;;;;;;;;5093281;28;20119;-62
2022/12/31 10:20:35;;;;;;;10.43;2.28;;;;;;;;;;5094308;28;20441;-63
2022/12/31 10:23:00;;;;;;;17.15;2.28;;;;;;;;;;5094640;28;20024;-63
2022/12/31 10:25:41;;;;;;;10.55;1.88;;;;;;;;;;5094468;28;20325;-62
2022/12/31 10:28:25;;;;;;;9.43;1.55;;;;;;;;;;5094377;28;20530;-63
2022/12/31 10:31:05;;;;;;;13.15;1.65;;;;;;;;;;5093750;28;20468;-63
2022/12/31 10:33:48;;;;;;;17.40;2.22;;;;;;;;;;5094120;28;20050;-64
2022/12/31 10:36:37;;;;;;;9.10;1.80;;;;;;;;;;5092769;28;20039;-63
2022/12/31 10:39:24;;;;;;;10.82;1.95;;;;;;;;;;5064961;28;20082;-63
2022/12/31 10:41:50;;;;;;;12.13;2.33;;;;;;;;;;5094370;28;20031;-63
2022/12/31 10:44:27;;;;;;;15.98;2.50;;;;;;;;;;5094194;28;20028;-66
2022/12/31 10:47:07;;;;;;;13.45;3.00;;;;;;;;;;5092854;28;20384;-63
2022/12/31 10:49:33;;;;;;;15.23;2.38;;;;;;;;;;5094006;28;20035;-62
2022/12/31 10:52:07;;;;;;;14.10;2.42;;;;;;;;;;5094023;28;20407;-63
2022/12/31 10:54:36;;;;;;;12.02;1.90;;;;;;;;;;5092285;28;20139;-62
2022/12/31 10:57:07;;;;;;;20.15;3.47;;;;;;;;;;5093701;28;20062;-62
2022/12/31 10:59:49;;;;;;;12.55;1.75;;;;;;;;;;5093885;28;20020;-62
2022/12/31 11:02:30;;;;;;;18.05;3.30;;;;;;;;;;5092871;28;20027;-64
2022/12/31 11:05:10;;;;;;;12.55;2.10;;;;;;;;;;5093182;28;20063;-65
2022/12/31 11:07:55;;;;;;;12.32;2.50;;;;;;;;;;5094451;28;20039;-65
2022/12/31 11:10:30;;;;;;;16.27;2.78;;;;;;;;;;5092733;28;20016;-65
2022/12/31 11:12:55;;;;;;;16.77;3.65;;;;;;;;;;5091894;28;20043;-64
2022/12/31 11:15:20;;;;;;;13.75;2.35;;;;;;;;;;5093650;28;20024;-64
2022/12/31 11:17:49;;;;;;;15.27;2.58;;;;;;;;;;5093548;28;20095;-64
2022/12/31 11:20:37;;;;;;;17.13;2.72;;;;;;;;;;5093279;28;20023;-64
2022/12/31 11:23:02;;;;;;;18.23;2.47;;;;;;;;;;5093511;28;20020;-64
2022/12/31 11:25:51;;;;;;;12.85;2.05;;;;;;;;;;5093192;28;20408;-64
2022/12/31 11:28:22;;;;;;;13.88;2.50;;;;;;;;;;5084598;28;20020;-63
2022/12/31 11:30:54;;;;;;;13.38;1.85;;;;;;;;;;5091675;28;20074;-64
2022/12/31 11:33:38;;;;;;;15.02;2.50;;;;;;;;;;5091079;28;20031;-64
2022/12/31 11:36:18;;;;;;;12.45;2.50;;;;;;;;;;5093221;28;20095;-63
2022/12/31 11:39:02;;;;;;;14.05;4.45;;;;;;;;;;5092944;28;20016;-64
2022/12/31 11:41:38;;;;;;;21.25;3.13;;;;;;;;;;5092756;28;20027;-66
2022/12/31 11:44:22;;;;;;;15.27;2.38;;;;;;;;;;5091028;28;20023;-68
2022/12/31 11:47:06;;;;;;;17.27;4.00;;;;;;;;;;5091786;28;20052;-67
2022/12/31 11:49:50;;;;;;;15.88;3.08;;;;;;;;;;5092838;28;20020;-68
2022/12/31 11:52:28;;;;;;;8.57;2.00;;;;;;;;;;5091071;28;20020;-68
2022/12/31 11:55:02;;;;;;;15.57;2.47;;;;;;;;;;5091317;28;20024;-67
2022/12/31 11:57:35;;;;;;;18.58;2.40;;;;;;;;;;5092660;28;20020;-68
2022/12/31 12:00:03;;;;;;;18.42;2.83;;;;;;;;;;5091074;28;20031;-70
2022/12/31 12:02:32;;;;;;;13.85;2.05;;;;;;;;;;5092399;28;20012;-69
2022/12/31 12:04:59;;;;;;;14.20;3.42;;;;;;;;;;5092452;28;20052;-69
2022/12/31 12:07:25;;;;;;;16.13;2.47;;;;;;;;;;5092777;28;20473;-66
2022/12/31 12:09:53;;;;;;;14.60;2.33;;;;;;;;;;5090812;28;20017;-66
2022/12/31 12:12:19;;;;;;;19.08;2.80;;;;;;;;;;5091915;28;20024;-65
2022/12/31 12:14:49;;;;;;;16.63;2.83;;;;;;;;;;5090684;28;20039;-66
2022/12/31 12:17:16;;;;;;;15.02;1.98;;;;;;;;;;5090481;28;20032;-66
2022/12/31 12:19:46;;;;;;;12.57;2.30;;;;;;;;;;5092394;28;20028;-67
2022/12/31 12:22:18;;;;;;;11.82;2.28;;;;;;;;;;5092221;28;20016;-67
2022/12/31 12:24:54;;;;;;;12.73;2.47;;;;;;;;;;5092168;28;20023;-66
2022/12/31 12:27:21;;;;;;;17.27;3.22;;;;;;;;;;5091839;28;20016;-68
2022/12/31 12:29:46;;;;;;;10.23;2.03;;;;;;;;;;5092330;28;20016;-69
2022/12/31 12:32:17;;;;;;;16.25;2.45;;;;;;;;;;5093127;28;20054;-68
2022/12/31 12:34:42;;;;;;;16.83;2.47;;;;;;;;;;5093269;28;20024;-69
2022/12/31 12:37:24;;;;;;;14.50;2.28;;;;;;;;;;5090775;28;20024;-66
2022/12/31 12:39:57;;;;;;;13.55;2.05;;;;;;;;;;5091472;28;20035;-67
2022/12/31 12:42:23;;;;;;;13.50;2.65;;;;;;;;;;5090688;28;20024;-65
2022/12/31 12:44:59;;;;;;;15.13;3.08;;;;;;;;;;5090926;28;20024;-66
2022/12/31 12:47:24;;;;;;;12.80;2.15;;;;;;;;;;5091849;28;20078;-66
2022/12/31 12:49:53;;;;;;;16.42;2.78;;;;;;;;;;5091885;28;20020;-66
2022/12/31 12:52:33;;;;;;;16.00;4.30;;;;;;;;;;5091080;28;20024;-65
2022/12/31 12:55:14;;;;;;;16.70;2.03;;;;;;;;;;5090131;28;20027;-64
2022/12/31 12:57:46;;;;;;;13.90;3.90;;;;;;;;;;5093458;28;20349;-65
2022/12/31 13:00:14;;;;;;;13.18;2.28;;;;;;;;;;5096440;28;20026;-65
2022/12/31 13:02:40;;;;;;;18.13;2.60;;;;;;;;;;5097044;28;20077;-67
2022/12/31 13:05:21;;;;;;;17.13;2.55;;;;;;;;;;5094658;28;20545;-65
2022/12/31 13:07:57;;;;;;;21.15;2.70;;;;;;;;;;5094491;28;20023;-65
2022/12/31 13:10:25;;;;;;;12.85;2.33;;;;;;;;;;5094398;28;20048;-65
2022/12/31 13:13:09;;;;;;;13.30;2.47;;;;;;;;;;5095060;28;20039;-65
2022/12/31 13:15:37;;;;;;;25.17;3.03;;;;;;;;;;5095870;28;20492;-65
2022/12/31 13:18:27;;;;;;;18.27;2.92;;;;;;;;;;5094167;28;20016;-66
2022/12/31 13:20:53;;;;;;;13.02;2.67;;;;;;;;;;5095542;28;20032;-65
2022/12/31 13:23:24;;;;;;;11.23;1.45;;;;;;;;;;5095290;28;20032;-65
2022/12/31 13:25:52;;;;;;;17.50;3.03;;;;;;;;;;5095727;28;20539;-65
2022/12/31 13:28:17;;;;;;;15.98;2.33;;;;;;;;;;5094385;28;20021;-66
2022/12/31 13:30:45;;;;;;;13.43;3.30;;;;;;;;;;5095631;28;20061;-70
2022/12/31 13:33:10;;;;;;;22.63;2.70;;;;;;;;;;5095333;28;20063;-66
2022/12/31 13:35:41;;;;;;;13.13;2.05;;;;;;;;;;5093677;28;20052;-70
2022/12/31 13:38:16;;;;;;;13.55;3.00;;;;;;;;;;5093701;28;20434;-69
2022/12/31 13:40:56;;;;;;;13.25;2.40;;;;;;;;;;5093935;28;20128;-71
2022/12/31 13:43:31;;;;;;;12.38;2.97;;;;;;;;;;5093866;28;20499;-69
2022/12/31 13:46:04;;;;;;;12.25;2.75;;;;;;;;;;5095187;28;20147;-69
2022/12/31 13:48:33;;;;;;;13.82;2.83;;;;;;;;;;5093540;28;20500;-67
2022/12/31 13:51:04;;;;;;;15.80;2.67;;;;;;;;;;5093687;28;20095;-69
2022/12/31 13:53:35;;;;;;;14.52;2.90;;;;;;;;;;5094926;28;20059;-70
2022/12/31 13:56:23;;;;;;;13.52;2.92;;;;;;;;;;5094934;28;20423;-70
2022/12/31 13:58:52;;;;;;;19.55;3.33;;;;;;;;;;5095418;28;20035;-70
2022/12/31 14:01:18;;;;;;;14.52;2.45;;;;;;;;;;5094625;28;20025;-69
2022/12/31 14:04:10;;;;;;;16.60;3.30;;;;;;;;;;5094802;28;20016;-70
2022/12/31 14:06:40;;;;;;;15.90;2.65;;;;;;;;;;5061943;28;20036;-70
2022/12/31 14:09:06;;;;;;;13.60;3.28;;;;;;;;;;5094159;28;20024;-69
2022/12/31 14:11:42;;;;;;;12.18;2.70;;;;;;;;;;5093433;28;20020;-70
2022/12/31 14:14:17;;;;;;;13.18;2.72;;;;;;;;;;5094658;28;20073;-70
2022/12/31 14:16:54;;;;;;;15.15;2.70;;;;;;;;;;5094902;28;20030;-71
2022/12/31 14:19:22;;;;;;;17.10;3.58;;;;;;;;;;5094528;28;20483;-70
2022/12/31 14:21:54;;;;;;;11.98;2.55;;;;;;;;;;5093348;28;20036;-71
2022/12/31 14:24:25;;;;;;;13.93;2.90;;;;;;;;;;5093414;28;20024;-72
2022/12/31 14:26:53;;;;;;;22.80;3.35;;;;;;;;;;5094148;28;20386;-72
2022/12/31 14:29:19;;;;;;;14.32;2.63;;;;;;;;;;5094204;28;20016;-70
2022/12/31 14:31:47;;;;;;;20.13;2.78;;;;;;;;;;5094162;28;20020;-71
2022/12/31 14:34:22;;;;;;;16.50;3.10;;;;;;;;;;5092695;28;20040;-70
2022/12/31 14:36:56;;;;;;;14.25;2.95;;;;;;;;;;5093253;28;20111;-71
2022/12/31 14:39:33;;;;;;;19.50;2.60;;;;;;;;;;5093226;28;20061;-71
2022/12/31 14:42:06;;;;;;;11.55;2.00;;;;;;;;;;5094038;28;20467;-70
2022/12/31 14:44:31;;;;;;;12.70;2.50;;;;;;;;;;5094516;28;20012;-73
2022/12/31 14:47:07;;;;;;;13.10;2.42;;;;;;;;;;5093934;28;20016;-71
2022/12/31 14:49:39;;;;;;;17.70;3.58;;;;;;;;;;5092641;28;20027;-71
2022/12/31 14:52:24;;;;;;;16.80;5.28;;;;;;;;;;5093547;28;20039;-72
2022/12/31 14:54:59;;;;;;;10.48;1.98;;;;;;;;;;5092871;28;20396;-72
2022/12/31 14:57:32;;;;;;;19.45;2.92;;;;;;;;;;5093725;28;20377;-71
2022/12/31 14:59:59;;;;;;;9.02;2.38;;;;;;;;;;5092526;28;20012;-71
2022/12/31 15:02:32;;;;;;;13.52;2.17;;;;;;;;;;5093943;28;20073;-71
2022/12/31 15:05:25;;;;;;;14.57;2.67;;;;;;;;;;5092086;28;20054;-73